createdAt,value
2022-09-03T00:00:19.852Z,17.00
2022-09-03T00:02:54.618Z,16.90
2022-09-03T00:05:28.067Z,16.90
2022-09-03T00:08:03.922Z,16.90
2022-09-03T00:10:44.951Z,17.00
2022-09-03T00:13:22.334Z,17.00
2022-09-03T00:15:54.805Z,17.10
2022-09-03T00:18:28.309Z,17.20
2022-09-03T00:21:08.391Z,17.40
2022-09-03T00:23:41.465Z,17.60
2022-09-03T00:26:27.457Z,17.80
2022-09-03T00:29:00.958Z,18.00
2022-09-03T00:31:33.451Z,18.00
2022-09-03T00:34:12.957Z,18.10
2022-09-03T00:36:44.508Z,18.10
2022-09-03T00:39:16.197Z,18.10
2022-09-03T00:41:59.264Z,18.20
2022-09-03T00:44:57.091Z,18.10
2022-09-03T00:47:34.015Z,18.20
2022-09-03T00:50:11.972Z,18.20
2022-09-03T00:52:54.425Z,18.20
2022-09-03T00:55:35.685Z,18.10
2022-09-03T00:58:22.974Z,18.10
2022-09-03T01:00:52.871Z,18.10
2022-09-03T01:03:29.193Z,18.10
2022-09-03T01:06:12.524Z,18.00
2022-09-03T01:08:57.699Z,18.00
2022-09-03T01:11:37.186Z,18.00
2022-09-03T01:14:17.344Z,17.90
2022-09-03T01:16:52.942Z,17.90
2022-09-03T01:19:44.091Z,17.90
2022-09-03T01:22:38.610Z,18.00
2022-09-03T01:25:21.546Z,18.10
2022-09-03T01:28:03.070Z,18.10
2022-09-03T01:30:39.036Z,18.10
2022-09-03T01:33:15.258Z,18.10
2022-09-03T01:35:48.910Z,18.00
2022-09-03T01:38:28.187Z,18.10
2022-09-03T01:41:21.898Z,18.00
2022-09-03T01:44:04.218Z,18.00
2022-09-03T01:46:38.157Z,17.90
2022-09-03T01:49:14.390Z,17.90
2022-09-03T01:51:42.950Z,17.80
2022-09-03T01:54:33.260Z,17.80
2022-09-03T01:57:35.638Z,17.70
2022-09-03T02:00:11.717Z,17.70
2022-09-03T02:02:41.275Z,17.70
2022-09-03T02:05:11.919Z,17.60
2022-09-03T02:07:43.188Z,17.60
2022-09-03T02:10:14.703Z,17.50
2022-09-03T02:12:47.489Z,17.50
2022-09-03T02:15:21.262Z,17.40
2022-09-03T02:17:54.196Z,17.40
2022-09-03T02:20:26.161Z,17.30
2022-09-03T02:22:55.413Z,17.30
2022-09-03T02:25:28.367Z,17.20
2022-09-03T02:27:56.953Z,17.20
2022-09-03T02:30:26.591Z,17.20
2022-09-03T02:32:55.126Z,17.20
2022-09-03T02:35:23.768Z,17.20
2022-09-03T02:37:52.159Z,17.20
2022-09-03T02:40:20.478Z,17.10
2022-09-03T02:42:49.347Z,17.00
2022-09-03T02:45:25.748Z,16.90
2022-09-03T02:47:57.368Z,16.70
2022-09-03T02:50:26.176Z,16.60
2022-09-03T02:52:54.482Z,16.50
2022-09-03T02:55:23.086Z,16.20
2022-09-03T02:57:51.729Z,16.10
2022-09-03T03:00:20.039Z,16.00
2022-09-03T03:02:48.614Z,16.00
2022-09-03T03:05:27.524Z,16.00
2022-09-03T03:07:58.660Z,16.00
2022-09-03T03:10:26.924Z,15.90
2022-09-03T03:12:55.353Z,15.80
2022-09-03T03:15:23.608Z,15.80
2022-09-03T03:17:51.866Z,15.80
2022-09-03T03:20:21.482Z,15.80
2022-09-03T03:22:49.749Z,15.80
2022-09-03T03:25:18.142Z,15.90
2022-09-03T03:27:46.969Z,15.90
2022-09-03T03:30:15.630Z,15.90
2022-09-03T03:32:43.870Z,15.90
2022-09-03T03:35:12.223Z,16.00
2022-09-03T03:37:42.054Z,16.00
2022-09-03T03:40:11.341Z,16.00
2022-09-03T03:42:39.939Z,16.00
2022-09-03T03:45:10.032Z,16.10
2022-09-03T03:47:38.676Z,16.10
2022-09-03T03:50:07.996Z,16.10
2022-09-03T03:52:36.273Z,16.20
2022-09-03T03:55:07.057Z,16.20
2022-09-03T03:57:36.638Z,16.20
2022-09-03T04:00:05.814Z,16.20
2022-09-03T04:02:38.918Z,16.20
2022-09-03T04:05:08.096Z,16.20
2022-09-03T04:07:36.701Z,16.30
2022-09-03T04:10:07.481Z,16.40
2022-09-03T04:12:35.682Z,16.40
2022-09-03T04:15:04.162Z,16.40
2022-09-03T04:17:32.470Z,16.40
2022-09-03T04:20:00.657Z,16.50
2022-09-03T04:22:30.582Z,16.50
2022-09-03T04:24:58.759Z,16.50
2022-09-03T04:27:28.314Z,16.60
2022-09-03T04:29:56.592Z,16.60
2022-09-03T04:32:42.389Z,16.60
2022-09-03T04:35:11.050Z,16.70
2022-09-03T04:37:39.183Z,16.70
2022-09-03T04:40:08.507Z,16.80
2022-09-03T04:42:38.050Z,16.90
2022-09-03T04:45:06.921Z,16.90
2022-09-03T04:47:36.572Z,16.90
2022-09-03T04:50:05.397Z,16.80
2022-09-03T04:52:33.877Z,16.80
2022-09-03T04:55:02.835Z,16.70
2022-09-03T04:57:34.478Z,16.70
2022-09-03T05:00:05.260Z,16.70
2022-09-03T05:02:33.591Z,16.70
2022-09-03T05:05:01.854Z,16.80
2022-09-03T05:07:38.585Z,16.70
2022-09-03T05:10:08.731Z,16.70
2022-09-03T05:12:36.955Z,16.70
2022-09-03T05:15:07.758Z,16.80
2022-09-03T05:17:38.551Z,16.80
2022-09-03T05:20:07.903Z,16.70
2022-09-03T05:22:36.342Z,16.90
2022-09-03T05:25:05.218Z,16.90
2022-09-03T05:27:33.817Z,16.90
2022-09-03T05:30:02.146Z,16.80
2022-09-03T05:32:33.481Z,16.80
2022-09-03T05:35:01.727Z,16.70
2022-09-03T05:37:29.899Z,16.70
2022-09-03T05:39:58.183Z,16.70
2022-09-03T05:42:28.427Z,16.60
2022-09-03T05:44:57.571Z,16.60
2022-09-03T05:47:25.748Z,16.80
2022-09-03T05:49:55.342Z,16.80
2022-09-03T05:52:23.585Z,16.90
2022-09-03T05:54:51.856Z,16.90
2022-09-03T05:57:20.169Z,16.90
2022-09-03T05:59:48.351Z,16.90
2022-09-03T06:02:20.104Z,16.90
2022-09-03T06:04:48.552Z,17.00
2022-09-03T06:07:18.169Z,17.00
2022-09-03T06:09:46.371Z,17.00
2022-09-03T06:12:14.764Z,17.10
2022-09-03T06:14:42.961Z,17.10
2022-09-03T06:17:12.716Z,17.20
2022-09-03T06:19:41.186Z,17.20
2022-09-03T06:22:09.383Z,17.30
2022-09-03T06:24:39.081Z,17.40
2022-09-03T06:27:08.382Z,17.50
2022-09-03T06:29:37.058Z,17.50
2022-09-03T06:32:05.521Z,17.60
2022-09-03T06:34:33.942Z,17.60
2022-09-03T06:37:02.165Z,17.70
2022-09-03T06:39:30.809Z,17.80
2022-09-03T06:42:00.835Z,17.90
2022-09-03T06:44:29.037Z,17.90
2022-09-03T06:47:01.386Z,18.10
2022-09-03T06:49:31.434Z,18.20
2022-09-03T06:52:00.055Z,18.20
2022-09-03T06:54:28.254Z,18.40
2022-09-03T06:56:56.908Z,18.40
2022-09-03T06:59:26.907Z,18.50
2022-09-03T07:01:55.344Z,18.60
2022-09-03T07:04:24.944Z,18.60
2022-09-03T07:06:53.115Z,18.70
2022-09-03T07:09:21.386Z,18.80
2022-09-03T07:11:49.768Z,18.80
2022-09-03T07:14:19.292Z,18.90
2022-09-03T07:16:50.584Z,18.90
2022-09-03T07:19:19.448Z,19.00
2022-09-03T07:21:50.567Z,19.20
2022-09-03T07:24:21.965Z,19.40
2022-09-03T07:26:50.478Z,19.60
2022-09-03T07:29:20.693Z,19.80
2022-09-03T07:31:52.974Z,19.90
2022-09-03T07:34:25.299Z,20.00
2022-09-03T07:36:54.024Z,20.00
2022-09-03T07:39:22.464Z,20.10
2022-09-03T07:41:50.937Z,20.10
2022-09-03T07:44:20.630Z,20.10
2022-09-03T07:46:51.955Z,20.10
2022-09-03T07:49:21.939Z,20.20
2022-09-03T07:51:54.271Z,20.30
2022-09-03T07:54:23.975Z,20.40
2022-09-03T07:56:52.475Z,20.40
2022-09-03T07:59:21.382Z,20.50
2022-09-03T08:01:52.341Z,20.40
2022-09-03T08:04:22.139Z,20.40
2022-09-03T08:06:55.476Z,20.40
2022-09-03T08:09:24.006Z,20.40
2022-09-03T08:11:52.515Z,20.60
2022-09-03T08:14:20.810Z,20.50
2022-09-03T08:16:50.384Z,20.60
2022-09-03T08:19:19.304Z,20.70
2022-09-03T08:21:48.396Z,20.90
2022-09-03T08:24:18.140Z,20.90
2022-09-03T08:26:51.421Z,20.90
2022-09-03T08:29:21.654Z,20.90
2022-09-03T08:31:51.544Z,21.20
2022-09-03T08:34:20.460Z,21.50
2022-09-03T08:36:48.930Z,22.20
2022-09-03T08:39:17.725Z,22.70
2022-09-03T08:42:01.034Z,22.90
2022-09-03T08:44:32.469Z,22.60
2022-09-03T08:47:08.099Z,22.60
2022-09-03T08:49:42.027Z,22.70
2022-09-03T08:52:24.978Z,22.90
2022-09-03T08:54:57.378Z,23.20
2022-09-03T08:57:27.192Z,23.60
2022-09-03T08:59:57.395Z,23.80
2022-09-03T09:02:36.285Z,24.00
2022-09-03T09:05:14.314Z,24.00
2022-09-03T09:07:53.306Z,24.20
2022-09-03T09:10:27.096Z,24.20
2022-09-03T09:13:06.247Z,23.90
2022-09-03T09:15:44.422Z,23.70
2022-09-03T09:18:23.758Z,24.00
2022-09-03T09:20:55.834Z,24.50
2022-09-03T09:23:31.151Z,24.70
2022-09-03T09:26:02.418Z,24.70
2022-09-03T09:28:34.740Z,24.70
2022-09-03T09:31:05.705Z,25.00
2022-09-03T09:33:35.875Z,25.10
2022-09-03T09:36:08.508Z,25.30
2022-09-03T09:38:39.029Z,25.70
2022-09-03T09:41:11.876Z,25.90
2022-09-03T09:43:40.525Z,25.90
2022-09-03T09:46:14.244Z,26.20
2022-09-03T09:48:51.713Z,26.50
2022-09-03T09:51:22.560Z,26.80
2022-09-03T09:54:02.862Z,27.00
2022-09-03T09:56:31.357Z,26.50
2022-09-03T09:59:07.640Z,26.90
2022-09-03T10:01:39.105Z,27.20
2022-09-03T10:04:13.425Z,27.70
2022-09-03T10:06:58.330Z,27.90
2022-09-03T10:09:31.067Z,27.60
2022-09-03T10:12:14.572Z,27.20
2022-09-03T10:14:48.625Z,27.30
2022-09-03T10:17:28.341Z,27.30
2022-09-03T10:20:32.472Z,27.30
2022-09-03T10:23:11.442Z,27.10
2022-09-03T10:25:52.065Z,27.20
2022-09-03T10:28:24.047Z,27.50
2022-09-03T10:31:07.614Z,28.00
2022-09-03T10:33:39.987Z,28.50
2022-09-03T10:36:17.246Z,28.50
2022-09-03T10:38:50.944Z,28.10
2022-09-03T10:41:30.752Z,27.60
2022-09-03T10:44:16.372Z,27.30
2022-09-03T10:46:55.635Z,27.50
2022-09-03T10:49:39.393Z,27.50
2022-09-03T10:52:16.130Z,27.60
2022-09-03T10:54:56.314Z,27.60
2022-09-03T10:57:36.955Z,27.40
2022-09-03T11:00:09.991Z,27.30
2022-09-03T11:03:12.617Z,27.50
2022-09-03T11:05:45.394Z,28.20
2022-09-03T11:08:22.891Z,28.80
2022-09-03T11:10:56.295Z,29.00
2022-09-03T11:13:33.519Z,29.40
2022-09-03T11:16:06.495Z,29.70
2022-09-03T11:18:39.522Z,30.10
2022-09-03T11:21:13.367Z,30.00
2022-09-03T11:23:46.930Z,29.70
2022-09-03T11:26:18.496Z,30.00
2022-09-03T11:28:59.227Z,30.10
2022-09-03T11:31:38.341Z,30.30
2022-09-03T11:34:23.642Z,30.20
2022-09-03T11:37:08.938Z,30.00
2022-09-03T11:39:41.139Z,29.70
2022-09-03T11:42:13.349Z,29.90
2022-09-03T11:44:48.717Z,29.80
2022-09-03T11:47:24.249Z,29.70
2022-09-03T11:49:54.818Z,29.40
2022-09-03T11:52:31.511Z,29.30
2022-09-03T11:55:01.161Z,29.70
2022-09-03T11:57:31.983Z,30.00
2022-09-03T12:00:11.788Z,30.10
2022-09-03T12:02:46.629Z,30.00
2022-09-03T12:05:27.428Z,29.70
2022-09-03T12:08:18.708Z,29.70
2022-09-03T12:10:55.826Z,29.30
2022-09-03T12:13:43.284Z,28.80
2022-09-03T12:16:46.244Z,29.00
2022-09-03T12:19:26.416Z,29.00
2022-09-03T12:21:55.431Z,29.10
2022-09-03T12:24:24.379Z,29.10
2022-09-03T12:26:56.167Z,29.00
2022-09-03T12:29:27.965Z,28.90
2022-09-03T12:31:58.182Z,28.90
2022-09-03T12:34:27.428Z,29.00
2022-09-03T12:36:56.300Z,29.00
2022-09-03T12:42:20.823Z,30.20
2022-09-03T12:44:49.729Z,30.00
2022-09-03T12:47:37.315Z,30.50
2022-09-03T12:50:09.515Z,30.40
2022-09-03T12:52:42.910Z,30.50
2022-09-03T12:55:22.333Z,30.70
2022-09-03T12:57:57.837Z,30.50
2022-09-03T13:00:31.774Z,30.10
2022-09-03T13:03:04.226Z,30.70
2022-09-03T13:05:36.557Z,31.40
2022-09-03T13:08:08.481Z,31.30
2022-09-03T13:10:41.958Z,31.60
2022-09-03T13:13:22.441Z,31.20
2022-09-03T13:16:23.489Z,30.40
2022-09-03T13:19:02.232Z,30.40
2022-09-03T13:21:38.008Z,30.70
2022-09-03T13:24:24.009Z,31.00
2022-09-03T13:27:06.094Z,31.10
2022-09-03T13:29:58.824Z,31.60
2022-09-03T13:32:37.122Z,32.30
2022-09-03T13:35:12.855Z,32.60
2022-09-03T13:37:45.425Z,31.90
2022-09-03T13:40:19.455Z,31.20
2022-09-03T13:42:54.992Z,30.30
2022-09-03T13:45:32.522Z,29.60
2022-09-03T13:48:26.656Z,29.10
2022-09-03T13:51:03.961Z,29.00
2022-09-03T13:53:44.164Z,29.80
2022-09-03T13:56:27.433Z,30.80
2022-09-03T13:59:02.651Z,31.20
2022-09-03T14:01:46.023Z,30.30
2022-09-03T14:04:23.046Z,29.30
2022-09-03T14:07:00.420Z,28.80
2022-09-03T14:09:36.737Z,28.60
2022-09-03T14:12:12.467Z,28.40
2022-09-03T14:14:53.414Z,28.40
2022-09-03T14:17:33.148Z,28.80
2022-09-03T14:20:05.877Z,29.70
2022-09-03T14:22:48.371Z,29.60
2022-09-03T14:25:18.531Z,29.30
2022-09-03T14:27:47.131Z,28.90
2022-09-03T14:30:34.842Z,28.80
2022-09-03T14:33:12.735Z,28.90
2022-09-03T14:35:54.753Z,28.80
2022-09-03T14:38:49.622Z,28.80
2022-09-03T14:41:42.615Z,28.70
2022-09-03T14:44:27.920Z,28.60
2022-09-03T14:47:07.540Z,28.80
2022-09-03T14:50:00.942Z,29.00
2022-09-03T14:52:49.028Z,29.60
2022-09-03T14:55:30.477Z,29.70
2022-09-03T14:58:23.459Z,30.40
2022-09-03T15:01:00.322Z,30.40
2022-09-03T15:04:17.705Z,30.10
2022-09-03T15:07:13.184Z,29.60
2022-09-03T15:09:48.792Z,29.20
2022-09-03T15:12:25.000Z,28.80
2022-09-03T15:14:56.531Z,28.40
2022-09-03T15:17:41.173Z,28.40
2022-09-03T15:20:23.861Z,28.90
2022-09-03T15:23:27.204Z,29.40
2022-09-03T15:26:29.328Z,29.20
2022-09-03T15:29:18.292Z,28.90
2022-09-03T15:31:57.984Z,28.60
2022-09-03T15:34:47.123Z,28.50
2022-09-03T15:37:20.944Z,28.50
2022-09-03T15:40:03.091Z,28.90
2022-09-03T15:42:31.890Z,29.50
2022-09-03T15:45:05.500Z,30.30
2022-09-03T15:47:51.038Z,30.40
2022-09-03T15:50:32.939Z,30.70
2022-09-03T15:53:06.080Z,30.60
2022-09-03T15:55:40.155Z,30.70
2022-09-03T15:58:22.222Z,31.00
2022-09-03T16:01:00.457Z,30.90
2022-09-03T16:03:45.225Z,30.40
2022-09-03T16:06:29.205Z,29.80
2022-09-03T16:09:04.247Z,29.30
2022-09-03T16:11:40.060Z,29.00
2022-09-03T16:14:16.104Z,28.60
2022-09-03T16:16:55.207Z,28.40
2022-09-03T16:19:27.586Z,28.10
2022-09-03T16:22:01.254Z,27.70
2022-09-03T16:24:36.028Z,27.50
2022-09-03T16:27:11.269Z,27.30
2022-09-03T16:29:41.736Z,27.40
2022-09-03T16:32:26.971Z,27.50
2022-09-03T16:35:21.771Z,27.50
2022-09-03T16:38:02.987Z,27.50
2022-09-03T16:40:39.705Z,27.40
2022-09-03T16:43:40.083Z,27.10
2022-09-03T16:46:21.292Z,27.10
2022-09-03T16:49:00.918Z,26.80
2022-09-03T16:51:39.153Z,26.70
2022-09-03T16:54:30.912Z,26.60
2022-09-03T16:57:12.897Z,26.60
2022-09-03T17:00:09.471Z,26.50
2022-09-03T17:03:13.724Z,26.40
2022-09-03T17:06:00.788Z,26.20
2022-09-03T17:08:38.856Z,25.90
2022-09-03T17:11:24.567Z,25.70
2022-09-03T17:14:03.812Z,25.50
2022-09-03T17:16:46.610Z,25.30
2022-09-03T17:19:26.170Z,25.20
2022-09-03T17:22:10.126Z,25.00
2022-09-03T17:24:42.767Z,24.80
2022-09-03T17:27:40.205Z,24.70
2022-09-03T17:30:20.172Z,24.50
2022-09-03T17:33:05.483Z,24.30
2022-09-03T17:35:39.191Z,24.20
2022-09-03T17:38:22.320Z,24.00
2022-09-03T17:41:04.261Z,23.90
2022-09-03T17:43:42.383Z,23.70
2022-09-03T17:46:20.677Z,23.60
2022-09-03T17:48:55.663Z,23.40
2022-09-03T17:51:37.033Z,23.30
2022-09-03T17:54:16.144Z,23.10
2022-09-03T17:56:51.193Z,23.00
2022-09-03T17:59:30.846Z,23.00
2022-09-03T18:02:04.803Z,23.00
2022-09-03T18:04:49.199Z,22.90
2022-09-03T18:07:25.438Z,22.80
2022-09-03T18:10:03.437Z,22.70
2022-09-03T18:12:41.353Z,22.60
2022-09-03T18:15:19.225Z,22.50
2022-09-03T18:17:55.091Z,22.40
2022-09-03T18:20:55.092Z,22.30
2022-09-03T18:23:56.691Z,22.20
2022-09-03T18:26:52.606Z,22.20
2022-09-03T18:29:44.523Z,22.10
2022-09-03T18:32:30.654Z,22.00
2022-09-03T18:35:16.391Z,21.90
2022-09-03T18:38:03.560Z,21.90
2022-09-03T18:40:57.221Z,21.90
2022-09-03T18:43:52.522Z,22.00
2022-09-03T18:49:58.647Z,21.90
2022-09-03T18:52:53.719Z,21.90
2022-09-03T18:55:54.282Z,21.80
2022-09-03T18:58:51.803Z,21.70
2022-09-03T19:01:49.375Z,21.70
2022-09-03T19:04:43.537Z,21.60
2022-09-03T19:07:32.610Z,21.50
2022-09-03T19:10:24.925Z,21.40
2022-09-03T19:13:31.824Z,21.20
2022-09-03T19:16:24.917Z,21.10
2022-09-03T19:19:28.430Z,21.00
2022-09-03T19:22:17.936Z,20.90
2022-09-03T19:25:03.895Z,20.70
2022-09-03T19:28:00.321Z,20.50
2022-09-03T19:30:54.264Z,20.40
2022-09-03T19:36:32.204Z,20.10
2022-09-03T19:39:33.716Z,19.90
2022-09-03T19:42:26.743Z,19.70
2022-09-03T19:45:22.111Z,19.50
2022-09-03T19:48:20.754Z,19.40
2022-09-03T19:51:18.903Z,19.40
2022-09-03T19:54:07.507Z,19.40
2022-09-03T19:56:55.656Z,19.30
2022-09-03T19:59:46.495Z,19.30
2022-09-03T20:02:32.304Z,19.20
2022-09-03T20:05:21.753Z,19.00
2022-09-03T20:08:12.004Z,19.00
2022-09-03T20:10:40.782Z,18.90
2022-09-03T20:13:13.425Z,19.00
2022-09-03T20:15:52.064Z,18.90
2022-09-03T20:18:32.247Z,18.80
2022-09-03T20:21:12.153Z,18.80
2022-09-03T20:23:51.377Z,18.80
2022-09-03T20:26:31.480Z,18.80
2022-09-03T20:29:31.704Z,18.80
2022-09-03T20:32:08.042Z,18.70
2022-09-03T20:34:47.652Z,18.70
2022-09-03T20:37:27.929Z,18.60
2022-09-03T20:40:17.770Z,18.60
2022-09-03T20:43:20.043Z,18.50
2022-09-03T20:46:03.116Z,18.40
2022-09-03T20:48:43.331Z,18.40
2022-09-03T20:51:22.815Z,18.30
2022-09-03T20:54:20.775Z,18.20
2022-09-03T20:57:14.925Z,18.10
2022-09-03T20:59:59.392Z,18.00
2022-09-03T21:02:43.603Z,17.90
2022-09-03T21:05:19.255Z,17.80
2022-09-03T21:07:59.345Z,17.80
2022-09-03T21:10:35.405Z,17.80
2022-09-03T21:13:13.471Z,17.80
2022-09-03T21:15:56.645Z,17.70
2022-09-03T21:18:34.760Z,17.70
2022-09-03T21:21:15.641Z,17.60
2022-09-03T21:23:46.842Z,17.40
2022-09-03T21:26:21.591Z,17.30
2022-09-03T21:28:59.501Z,17.30
2022-09-03T21:31:38.955Z,17.30
2022-09-03T21:34:25.497Z,17.20
2022-09-03T21:36:53.760Z,17.30
2022-09-03T21:39:27.696Z,17.40
2022-09-03T21:42:04.688Z,17.40
2022-09-03T21:44:48.461Z,17.50
2022-09-03T21:47:18.669Z,17.40
2022-09-03T21:49:57.617Z,17.40
2022-09-03T21:52:35.574Z,17.40
2022-09-03T21:55:09.488Z,17.40
2022-09-03T21:57:43.627Z,17.30
2022-09-03T22:00:18.791Z,17.30
2022-09-03T22:02:47.842Z,17.30
2022-09-03T22:05:18.473Z,17.20
2022-09-03T22:08:02.421Z,17.00
2022-09-03T22:10:34.321Z,16.90
2022-09-03T22:13:18.983Z,17.00
2022-09-03T22:15:52.260Z,17.00
2022-09-03T22:18:28.665Z,16.80
2022-09-03T22:21:04.093Z,16.70
2022-09-03T22:23:43.657Z,16.60
2022-09-03T22:26:27.622Z,16.60
2022-09-03T22:29:09.245Z,16.70
2022-09-03T22:31:48.371Z,16.60
2022-09-03T22:34:27.596Z,16.60
2022-09-03T22:37:02.001Z,16.50
2022-09-03T22:39:36.530Z,16.50
2022-09-03T22:42:20.723Z,16.50
2022-09-03T22:45:10.005Z,16.50
2022-09-03T22:47:46.635Z,16.50
2022-09-03T22:50:21.767Z,16.50
2022-09-03T22:52:59.756Z,16.50
2022-09-03T22:55:28.468Z,16.50
2022-09-03T22:58:01.538Z,16.30
2022-09-03T23:00:35.197Z,16.30
2022-09-03T23:03:08.604Z,16.20
2022-09-03T23:05:45.067Z,16.20
2022-09-03T23:08:18.988Z,16.20
2022-09-03T23:11:04.151Z,16.40
2022-09-03T23:13:37.582Z,16.50
2022-09-03T23:16:13.820Z,16.30
2022-09-03T23:18:46.479Z,16.10
2022-09-03T23:21:23.200Z,16.20
2022-09-03T23:23:57.787Z,16.20
2022-09-03T23:26:33.441Z,16.30
2022-09-03T23:29:11.051Z,16.20
2022-09-03T23:31:40.769Z,16.20
2022-09-03T23:34:11.132Z,16.20
2022-09-03T23:37:16.207Z,16.10
2022-09-03T23:40:03.896Z,16.10
2022-09-03T23:42:51.141Z,16.10
2022-09-03T23:45:27.963Z,16.00
2022-09-03T23:48:08.190Z,16.10
2022-09-03T23:50:44.747Z,16.10
2022-09-03T23:53:28.706Z,16.00
2022-09-03T23:56:19.193Z,15.80
2022-09-03T23:58:57.584Z,15.80
